Concordia, Kansas
Current Conditions -  °F | °C
As of 11:55 AM on Monday 26 Jan 2015 (Local Time) from KCNK Reporting Station
Clear Clear  
Wind Chill: 17°   Ceiling: Unl
Heat Index: 17°   Visibility: 10mi
Dew Point:   Wind: 18mph
Humidity: 37%   Direction: 310°NW
Pressure: 29.98"   Gusts: NA
Location:  39.57°N, 97.66°W
Report Text: KCNK 261755Z AUTO 31016KT 10SM CLR 17/02 A2998 RMK AO2 SLP155 T01670017 10167 20000 50002
Loading
Personal Weather Stations






























Interactive Weather Map New forecast layout! Learn more

10-Day Weather Forecast

Advertisements
Track Severe Weather on mobile